Time;durP1;ratioP1;P1;durP2;ratioP2;P2;SDS_P1;SDS_P2;PMS_P1;PMS_P2;Temp;Humidity;BMP_temperature;BMP_pressure;BME280_temperature;BME280_humidity;BME280_pressure;Samples;Min_cycle;Max_cycle;Signal;HPM_P1;HPM_P2
2023/03/07 00:01:06;;;;;;;26.30;15.10;;;;;;;0.59;100.00;99487.88;10230882;28;20049;-73
2023/03/07 00:06:07;;;;;;;29.42;17.73;;;;;;;0.54;100.00;99474.47;10217250;28;20057;-74
2023/03/07 00:11:06;;;;;;;22.50;14.30;;;;;;;0.62;100.00;99465.78;10222398;28;20037;-74
2023/03/07 00:16:09;;;;;;;28.42;18.27;;;;;;;0.57;100.00;99451.59;10225294;28;20045;-74
2023/03/07 00:21:08;;;;;;;26.98;16.25;;;;;;;0.61;100.00;99434.59;10223296;28;20408;-74
2023/03/07 00:26:07;;;;;;;34.53;21.30;;;;;;;0.52;100.00;99422.84;10231113;28;20137;-74
2023/03/07 00:31:06;;;;;;;29.67;18.80;;;;;;;0.58;100.00;99410.97;10222775;28;20058;-73
2023/03/07 00:36:04;;;;;;;32.65;20.08;;;;;;;0.53;100.00;99405.63;10227569;28;20128;-74
2023/03/07 00:41:09;;;;;;;35.50;20.75;;;;;;;0.50;100.00;99387.38;10229778;28;20046;-73
2023/03/07 00:46:06;;;;;;;43.75;23.33;;;;;;;0.45;100.00;99376.66;10220529;28;20100;-73
2023/03/07 00:51:04;;;;;;;35.88;20.65;;;;;;;0.52;100.00;99363.69;10229150;28;20045;-74
2023/03/07 00:56:02;;;;;;;42.40;23.17;;;;;;;0.56;100.00;99348.59;10223416;28;20558;-73
2023/03/07 01:00:59;;;;;;;43.83;23.77;;;;;;;0.65;100.00;99345.25;10229685;28;20054;-74
2023/03/07 01:05:55;;;;;;;37.53;21.95;;;;;;;0.67;100.00;99338.50;10230688;28;20060;-73
2023/03/07 01:10:57;;;;;;;37.67;23.20;;;;;;;0.72;100.00;99334.94;10225268;28;20402;-73
2023/03/07 01:15:54;;;;;;;39.13;21.58;;;;;;;0.77;100.00;99324.16;10227024;28;20045;-73
2023/03/07 01:20:51;;;;;;;39.30;23.83;;;;;;;0.79;100.00;99297.75;10232561;28;20063;-73
2023/03/07 01:25:47;;;;;;;38.38;23.75;;;;;;;0.72;100.00;99302.66;10231311;28;20711;-73
2023/03/07 01:30:44;;;;;;;44.03;25.83;;;;;;;0.74;100.00;99287.88;10229214;28;20056;-73
2023/03/07 01:35:41;;;;;;;39.38;23.65;;;;;;;0.70;100.00;99277.97;10231614;28;20212;-73
2023/03/07 01:40:38;;;;;;;43.92;24.88;;;;;;;0.65;100.00;99264.56;10229764;28;20053;-72
2023/03/07 01:45:34;;;;;;;48.08;28.63;;;;;;;0.59;100.00;99255.75;10237449;28;20048;-72
2023/03/07 01:50:31;;;;;;;37.60;23.38;;;;;;;0.59;100.00;99251.16;10226998;28;20100;-73
2023/03/07 01:55:32;;;;;;;42.35;25.00;;;;;;;0.60;100.00;99242.03;10228216;28;20049;-72
2023/03/07 02:00:29;;;;;;;38.97;24.58;;;;;;;0.56;100.00;99230.25;10233324;28;20037;-73
2023/03/07 02:05:31;;;;;;;44.13;29.48;;;;;;;0.59;100.00;99224.28;10221930;28;20145;-72
2023/03/07 02:10:31;;;;;;;36.38;22.08;;;;;;;0.68;100.00;99216.38;10231425;28;20440;-72
2023/03/07 02:15:28;;;;;;;38.45;23.35;;;;;;;0.68;100.00;99205.63;10228474;28;20393;-73
2023/03/07 02:20:47;;;;;;;32.17;20.55;;;;;;;0.71;100.00;99194.25;10228766;28;20049;-73
2023/03/07 02:25:53;;;;;;;38.42;21.75;;;;;;;0.76;100.00;99190.69;10225290;28;20045;-73
2023/03/07 02:30:57;;;;;;;33.70;21.33;;;;;;;0.80;100.00;99180.97;10230092;28;20049;-74
2023/03/07 02:35:57;;;;;;;36.40;22.13;;;;;;;0.83;100.00;99175.00;10258474;28;20041;-73
2023/03/07 02:40:54;;;;;;;27.80;18.90;;;;;;;0.80;100.00;99164.81;10227855;28;20065;-74
2023/03/07 02:45:50;;;;;;;32.20;19.20;;;;;;;0.84;100.00;99176.63;10220177;28;20580;-74
2023/03/07 02:50:47;;;;;;;34.33;21.23;;;;;;;0.84;100.00;99155.09;10230169;28;20069;-74
2023/03/07 02:55:44;;;;;;;34.95;21.05;;;;;;;0.82;100.00;99162.66;10225923;28;20049;-75
2023/03/07 03:00:40;;;;;;;35.25;21.77;;;;;;;0.78;100.00;99140.09;10227350;28;20129;-74
2023/03/07 03:05:36;;;;;;;35.97;22.45;;;;;;;0.84;100.00;99136.25;10232898;28;20414;-76
2023/03/07 03:10:33;;;;;;;37.08;22.50;;;;;;;0.88;100.00;99134.56;10228852;28;20045;-76
2023/03/07 03:15:29;;;;;;;41.65;25.88;;;;;;;0.94;100.00;99125.31;10229734;28;20045;-75
2023/03/07 03:20:26;;;;;;;37.28;23.20;;;;;;;0.98;100.00;99123.66;10222594;28;20131;-75
2023/03/07 03:25:24;;;;;;;36.88;23.05;;;;;;;1.01;100.00;99096.13;10221476;28;20527;-75
2023/03/07 03:30:20;;;;;;;38.45;22.88;;;;;;;1.04;100.00;99100.13;10220731;28;20045;-76
2023/03/07 03:35:17;;;;;;;33.65;19.98;;;;;;;1.08;100.00;99090.38;10229882;28;20049;-75
2023/03/07 03:40:14;;;;;;;37.70;21.58;;;;;;;1.16;100.00;99092.41;10229994;28;20048;-74
2023/03/07 03:45:11;;;;;;;31.02;19.17;;;;;;;1.20;100.00;99088.00;10227803;28;20137;-75
2023/03/07 03:50:08;;;;;;;34.60;19.30;;;;;;;1.24;100.00;99085.53;10223710;28;20475;-74
2023/03/07 03:55:05;;;;;;;31.85;20.25;;;;;;;1.31;100.00;99082.47;10226002;28;20137;-74
2023/03/07 04:00:04;;;;;;;29.60;18.98;;;;;;;1.34;100.00;99071.88;10220554;28;20056;-71
2023/03/07 04:05:00;;;;;;;29.70;17.42;;;;;;;1.37;100.00;99070.50;10226858;28;20096;-75
2023/03/07 04:09:57;;;;;;;26.98;18.20;;;;;;;1.41;100.00;99056.13;10229807;28;20103;-74
2023/03/07 04:14:53;;;;;;;25.70;17.02;;;;;;;1.45;100.00;99056.34;10225751;28;20037;-75
2023/03/07 04:19:50;;;;;;;29.80;18.33;;;;;;;1.54;100.00;99048.38;10228504;28;20137;-74
2023/03/07 04:24:46;;;;;;;25.90;15.98;;;;;;;1.51;100.00;99046.28;10223898;28;20053;-75
2023/03/07 04:29:43;;;;;;;23.20;15.68;;;;;;;1.55;100.00;99033.81;10229989;28;20073;-75
2023/03/07 04:34:39;;;;;;;26.17;15.30;;;;;;;1.59;100.00;99034.81;10218927;28;20252;-75
2023/03/07 04:39:35;;;;;;;16.67;12.70;;;;;;;1.67;100.00;99026.03;10225027;28;20499;-74
2023/03/07 04:44:32;;;;;;;19.98;11.88;;;;;;;1.67;100.00;99009.84;10224188;28;20080;-75
2023/03/07 04:49:28;;;;;;;15.38;11.63;;;;;;;1.70;100.00;98971.56;10231591;28;20093;-73
2023/03/07 04:54:25;;;;;;;16.35;10.23;;;;;;;1.69;100.00;98986.09;10235862;28;20045;-74
2023/03/07 04:59:21;;;;;;;21.75;12.35;;;;;;;1.72;100.00;99001.69;10233169;28;20418;-74
2023/03/07 05:04:18;;;;;;;14.52;10.27;;;;;;;1.72;100.00;98966.66;10235107;28;20499;-74
2023/03/07 05:09:14;;;;;;;14.60;9.50;;;;;;;1.70;100.00;98960.00;10236267;28;20057;-74
2023/03/07 05:14:11;;;;;;;12.57;7.78;;;;;;;1.76;100.00;99010.75;10227628;28;20049;-73
2023/03/07 05:19:08;;;;;;;12.00;7.65;;;;;;;1.80;100.00;98944.38;10221904;28;20045;-74
2023/03/07 05:24:05;;;;;;;10.05;7.18;;;;;;;1.80;100.00;98922.03;10230433;28;20450;-74
2023/03/07 05:29:02;;;;;;;10.50;6.28;;;;;;;1.85;100.00;98946.97;10239378;28;20073;-74
2023/03/07 05:33:58;;;;;;;9.30;6.50;;;;;;;1.85;100.00;98949.66;10230540;28;20049;-74
2023/03/07 05:38:55;;;;;;;6.93;5.78;;;;;;;1.86;100.00;98943.19;10232384;28;20496;-73
2023/03/07 05:43:54;;;;;;;10.05;6.13;;;;;;;1.80;100.00;98939.00;10227898;28;20049;-74
2023/03/07 05:48:50;;;;;;;11.38;5.68;;;;;;;1.78;100.00;98914.25;10222630;28;20045;-74
2023/03/07 05:53:47;;;;;;;6.57;5.57;;;;;;;1.72;100.00;98928.94;10226902;28;20074;-74
2023/03/07 05:58:43;;;;;;;10.30;6.03;;;;;;;1.72;100.00;98926.25;10227942;28;20099;-75
2023/03/07 06:03:41;;;;;;;7.65;5.47;;;;;;;1.80;100.00;98927.41;10228494;28;20042;-74
2023/03/07 06:08:38;;;;;;;6.35;5.82;;;;;;;1.84;100.00;98918.44;10234937;28;20041;-74
2023/03/07 06:13:34;;;;;;;10.70;6.70;;;;;;;1.89;100.00;98910.22;10229414;28;20040;-75
2023/03/07 06:18:31;;;;;;;11.68;5.25;;;;;;;1.95;100.00;98928.97;10229483;28;20104;-76
2023/03/07 06:23:29;;;;;;;12.98;6.93;;;;;;;1.98;100.00;98880.66;10221753;28;20066;-74
2023/03/07 06:28:26;;;;;;;14.32;6.25;;;;;;;2.00;100.00;98920.78;10229493;28;20041;-74
2023/03/07 06:33:23;;;;;;;8.65;6.53;;;;;;;1.99;100.00;98905.69;10221930;28;20088;-75
2023/03/07 06:38:19;;;;;;;9.18;6.10;;;;;;;1.97;100.00;98911.38;10235629;28;20549;-74
2023/03/07 06:43:16;;;;;;;11.48;5.38;;;;;;;2.01;100.00;98933.94;10233460;28;20042;-74
2023/03/07 06:48:12;;;;;;;10.02;5.32;;;;;;;2.03;100.00;98941.72;10229667;28;20053;-75
2023/03/07 06:53:09;;;;;;;11.02;5.57;;;;;;;2.03;100.00;98920.16;10226490;28;20566;-74
2023/03/07 06:58:05;;;;;;;14.15;6.35;;;;;;;2.06;100.00;98924.94;10228945;28;20072;-74
2023/03/07 07:03:01;;;;;;;9.55;5.78;;;;;;;2.13;100.00;98930.69;10228987;28;20111;-73
2023/03/07 07:07:58;;;;;;;7.47;5.63;;;;;;;2.16;100.00;98919.31;10232272;28;20132;-74
2023/03/07 07:12:55;;;;;;;10.32;5.88;;;;;;;2.20;100.00;98941.84;10230819;28;20049;-74
2023/03/07 07:17:52;;;;;;;12.70;5.53;;;;;;;2.24;100.00;98926.66;10227727;28;20125;-74
2023/03/07 07:22:48;;;;;;;8.82;5.50;;;;;;;2.27;100.00;98930.66;10230499;28;20448;-73
2023/03/07 07:27:45;;;;;;;7.07;5.38;;;;;;;2.25;100.00;98927.47;10224196;28;20041;-73
2023/03/07 07:32:43;;;;;;;14.90;6.15;;;;;;;2.27;100.00;98958.41;10229648;28;20046;-75
2023/03/07 07:37:40;;;;;;;13.40;5.85;;;;;;;2.28;100.00;98937.66;10221068;28;20534;-75
2023/03/07 07:42:36;;;;;;;10.93;6.47;;;;;;;2.35;100.00;98937.22;10228862;28;20495;-75
2023/03/07 07:47:33;;;;;;;9.07;5.40;;;;;;;2.49;100.00;98954.16;10230510;28;20065;-75
2023/03/07 07:52:29;;;;;;;11.50;5.53;;;;;;;2.46;100.00;98943.94;10231085;28;20357;-75
2023/03/07 07:57:26;;;;;;;12.60;5.22;;;;;;;2.48;100.00;98952.53;10222281;28;20060;-75
2023/03/07 08:02:22;;;;;;;12.10;5.40;;;;;;;2.51;100.00;98949.25;10228104;28;20525;-76
2023/03/07 08:07:19;;;;;;;7.18;5.22;;;;;;;2.64;100.00;98956.44;10258710;28;20045;-75
2023/03/07 08:12:15;;;;;;;14.40;6.55;;;;;;;2.73;100.00;98943.81;10228277;28;20055;-75
2023/03/07 08:17:12;;;;;;;17.25;6.03;;;;;;;2.78;100.00;98955.59;10224252;28;20466;-74
2023/03/07 08:22:08;;;;;;;14.70;5.53;;;;;;;2.13;100.00;99016.97;10227260;28;20052;-74
2023/03/07 08:27:05;;;;;;;11.77;5.82;;;;;;;1.55;100.00;99018.44;10224446;28;20499;-73
2023/03/07 08:32:01;;;;;;;8.57;5.68;;;;;;;1.46;100.00;99009.47;10218120;28;20461;-74
2023/03/07 08:36:58;;;;;;;10.00;5.88;;;;;;;1.76;100.00;99029.59;10216649;28;20470;-74
2023/03/07 08:41:55;;;;;;;10.18;5.57;;;;;;;1.86;100.00;99018.63;10225444;28;20475;-75
2023/03/07 08:46:52;;;;;;;13.60;6.28;;;;;;;2.04;100.00;99013.41;10221393;28;20722;-74
2023/03/07 08:51:49;;;;;;;15.85;6.25;;;;;;;2.19;100.00;99015.78;10225423;28;20052;-75
2023/03/07 08:56:45;;;;;;;8.43;5.63;;;;;;;2.15;100.00;99035.56;10222576;28;20054;-72
2023/03/07 09:01:41;;;;;;;11.75;6.30;;;;;;;2.07;100.00;99015.53;10221914;28;20688;-71
2023/03/07 09:06:38;;;;;;;13.23;7.28;;;;;;;1.82;100.00;99047.28;10225254;28;20069;-72
2023/03/07 09:11:35;;;;;;;10.40;5.90;;;;;;;1.79;100.00;99047.88;10224677;28;20411;-73
2023/03/07 09:16:31;;;;;;;10.48;6.35;;;;;;;1.92;100.00;99046.28;10227059;28;20096;-73
2023/03/07 09:21:28;;;;;;;14.73;5.32;;;;;;;2.05;100.00;99044.69;10223072;28;20045;-72
2023/03/07 09:26:25;;;;;;;11.95;6.85;;;;;;;2.09;100.00;99040.28;10231846;28;20458;-72
2023/03/07 09:31:22;;;;;;;10.43;5.55;;;;;;;2.00;100.00;99039.41;10233997;28;20111;-73
2023/03/07 09:36:19;;;;;;;9.85;5.97;;;;;;;2.12;100.00;99046.97;10224820;28;20103;-72
2023/03/07 09:41:40;;;;;;;13.32;7.03;;;;;;;2.24;100.00;99066.91;10235381;28;20442;-72
2023/03/07 09:47:25;;;;;;;10.27;5.53;;;;;;;2.45;100.00;99071.84;10229143;28;20651;-72
2023/03/07 09:52:25;;;;;;;10.57;5.35;;;;;;;2.62;100.00;99039.63;10232504;28;20052;-73
2023/03/07 09:57:27;;;;;;;11.57;6.03;;;;;;;2.79;100.00;99032.75;10234562;28;20045;-72
2023/03/07 10:02:33;;;;;;;12.15;5.25;;;;;;;2.74;100.00;99042.56;10233884;28;20117;-72
2023/03/07 10:07:31;;;;;;;11.35;5.00;;;;;;;2.79;100.00;99038.94;10228661;28;20053;-72
2023/03/07 10:12:40;;;;;;;7.40;4.88;;;;;;;2.81;100.00;99046.72;10228109;28;20045;-73
2023/03/07 10:18:05;;;;;;;10.60;6.03;;;;;;;2.90;100.00;99034.91;10229447;28;20050;-72
2023/03/07 10:23:20;;;;;;;9.50;5.70;;;;;;;2.84;100.00;99041.53;10233930;28;20049;-73
2023/03/07 10:28:22;;;;;;;13.43;6.50;;;;;;;2.71;100.00;99050.47;10233921;28;20042;-73
2023/03/07 10:33:19;;;;;;;6.68;5.13;;;;;;;2.53;100.00;99069.25;10232112;28;20099;-72
2023/03/07 10:38:29;;;;;;;5.47;4.82;;;;;;;2.25;100.00;99084.69;10232162;28;20072;-72
2023/03/07 10:43:33;;;;;;;6.68;4.82;;;;;;;2.34;100.00;99092.06;10222829;28;20068;-73
2023/03/07 10:48:31;;;;;;;12.73;5.80;;;;;;;2.39;100.00;99073.06;10230682;28;20061;-73
2023/03/07 10:53:35;;;;;;;14.70;5.75;;;;;;;2.49;100.00;99083.63;10232228;28;20041;-73
2023/03/07 10:58:31;;;;;;;9.27;5.30;;;;;;;2.69;100.00;99067.00;10225282;28;20054;-72
2023/03/07 11:03:37;;;;;;;13.38;6.78;;;;;;;2.68;100.00;99073.47;10229877;28;20038;-73
2023/03/07 11:08:47;;;;;;;15.23;7.03;;;;;;;2.57;100.00;99080.19;10226931;28;20414;-73
2023/03/07 11:14:04;;;;;;;7.68;5.28;;;;;;;2.77;100.00;99078.16;10232514;28;20045;-73
2023/03/07 11:19:02;;;;;;;11.25;5.68;;;;;;;2.95;100.00;99080.66;10215134;28;20104;-74
2023/03/07 11:24:05;;;;;;;16.20;6.63;;;;;;;3.19;100.00;99084.16;10223555;28;20069;-74
2023/03/07 11:29:04;;;;;;;;;;;;;;;3.16;100.00;99083.66;10226465;28;20396;-74
2023/03/07 11:34:19;;;;;;;7.72;5.53;;;;;;;3.03;100.00;99097.25;10224031;28;20020;-74
2023/03/07 11:39:21;;;;;;;14.40;6.15;;;;;;;3.01;100.00;99100.22;10229981;28;20045;-73
2023/03/07 11:44:51;;;;;;;12.88;6.97;;;;;;;3.13;100.00;99086.19;10231933;28;20167;-74
2023/03/07 11:49:54;;;;;;;9.23;5.72;;;;;;;3.58;100.00;99086.13;10230137;28;20068;-74
2023/03/07 11:55:12;;;;;;;12.90;6.60;;;;;;;4.36;100.00;99072.84;10229849;28;20125;-74
2023/03/07 12:00:31;;;;;;;9.00;5.55;;;;;;;4.58;100.00;99095.47;10227458;28;20495;-73
2023/03/07 12:05:27;;;;;;;13.93;6.03;;;;;;;3.83;100.00;99095.47;10224293;28;20072;-72
2023/03/07 12:10:47;;;;;;;11.55;5.93;;;;;;;3.87;100.00;99107.22;10226197;28;20049;-73
2023/03/07 12:16:03;;;;;;;11.88;5.15;;;;;;;3.80;100.00;99109.56;10225952;28;20046;-72
2023/03/07 12:21:15;;;;;;;8.50;5.47;;;;;;;4.21;100.00;99103.03;10226619;28;20068;-73
2023/03/07 12:26:25;;;;;;;10.65;5.18;;;;;;;5.56;100.00;99123.72;10221792;28;20052;-73
2023/03/07 12:31:31;;;;;;;7.22;5.30;;;;;;;5.02;100.00;99118.72;10230332;28;20532;-73
2023/03/07 12:36:49;;;;;;;12.05;5.53;;;;;;;6.38;100.00;99115.41;10225422;28;20705;-72
2023/03/07 12:42:01;;;;;;;8.07;5.65;;;;;;;7.17;89.01;99110.19;10221123;28;20040;-73
2023/03/07 12:47:05;;;;;;;10.50;6.20;;;;;;;8.34;72.81;99114.47;10226854;28;20507;-73
2023/03/07 12:52:05;;;;;;;13.15;5.60;;;;;;;6.94;75.96;99132.28;10223528;28;20038;-73
2023/03/07 12:57:07;;;;;;;11.32;5.60;;;;;;;5.61;82.44;99147.94;10227440;28;20141;-73
2023/03/07 13:02:10;;;;;;;8.73;5.43;;;;;;;4.64;88.89;99137.50;10234461;28;20492;-73
2023/03/07 13:07:28;;;;;;;7.43;4.90;;;;;;;4.56;97.62;99151.81;10236071;28;20073;-73
2023/03/07 13:12:31;;;;;;;12.80;5.85;;;;;;;6.93;85.67;99157.88;10229958;28;20128;-72
2023/03/07 13:17:30;;;;;;;17.02;6.05;;;;;;;7.76;73.84;99161.59;10230255;28;20167;-73
2023/03/07 13:22:26;;;;;;;11.52;6.72;;;;;;;9.85;63.53;99136.66;10232017;28;20046;-73
2023/03/07 13:27:26;;;;;;;12.65;6.38;;;;;;;9.33;65.22;99131.34;10226960;28;20147;-73
2023/03/07 13:32:51;;;;;;;7.80;6.13;;;;;;;7.92;69.84;99152.78;10230012;28;20045;-73
2023/03/07 13:37:53;;;;;;;8.70;5.93;;;;;;;7.96;70.89;99153.66;10229444;28;20063;-73
2023/03/07 13:42:50;;;;;;;10.60;5.65;;;;;;;8.10;70.46;99156.88;10235488;28;20073;-73
2023/03/07 13:47:47;;;;;;;10.80;5.88;;;;;;;8.92;65.94;99153.22;10234040;28;20091;-73
2023/03/07 13:52:45;;;;;;;6.13;5.53;;;;;;;8.42;67.74;99154.41;10227185;28;20038;-72
2023/03/07 13:57:41;;;;;;;6.95;5.07;;;;;;;6.32;78.22;99165.59;10229311;28;20072;-73
2023/03/07 14:02:40;;;;;;;8.98;5.82;;;;;;;7.62;76.76;99171.19;10232953;28;20045;-73
2023/03/07 14:07:41;;;;;;;8.70;5.35;;;;;;;9.04;70.01;99157.84;10226381;28;20065;-73
2023/03/07 14:13:12;;;;;;;5.93;4.82;;;;;;;8.91;62.68;99170.72;10225382;28;20128;-74
2023/03/07 14:18:23;;;;;;;6.10;5.30;;;;;;;7.82;66.99;99164.09;10231486;28;20041;-74
2023/03/07 14:23:45;;;;;;;6.30;5.20;;;;;;;9.05;62.68;99159.41;10230987;28;20043;-74
2023/03/07 14:29:12;;;;;;;5.97;5.40;;;;;;;8.52;62.26;99169.53;10219297;28;20077;-74
2023/03/07 14:34:27;;;;;;;7.43;5.20;;;;;;;7.21;67.50;99162.75;10226002;28;20115;-75
2023/03/07 14:39:34;;;;;;;6.97;5.13;;;;;;;6.14;74.77;99185.81;10223790;28;20104;-74
2023/03/07 14:44:36;;;;;;;8.18;5.20;;;;;;;6.14;74.77;99185.81;10229647;28;20049;-74
2023/03/07 14:49:58;;;;;;;7.65;5.20;;;;;;;6.08;77.72;99194.13;10226572;28;20056;-74
2023/03/07 14:54:55;;;;;;;8.13;5.13;;;;;;;6.81;77.40;99187.69;10222931;28;20124;-74
2023/03/07 15:00:18;;;;;;;8.32;4.47;;;;;;;7.01;76.27;99191.56;10225988;28;20049;-74
2023/03/07 15:05:18;;;;;;;7.43;4.93;;;;;;;7.07;75.96;99194.84;10227794;28;20041;-74
2023/03/07 15:10:32;;;;;;;6.32;4.88;;;;;;;6.58;82.24;99194.53;10232871;28;20080;-74
2023/03/07 15:15:34;;;;;;;10.10;6.60;;;;;;;6.38;92.62;99202.28;10216330;28;20041;-75
2023/03/07 15:20:32;;;;;;;5.80;5.00;;;;;;;6.02;100.00;99200.06;10222181;28;20038;-74
2023/03/07 15:25:28;;;;;;;8.43;5.00;;;;;;;4.94;100.00;99221.63;10229343;28;20048;-74
2023/03/07 15:30:32;;;;;;;6.93;5.30;;;;;;;4.94;100.00;99221.63;10223798;28;20052;-74
2023/03/07 15:35:29;;;;;;;8.90;5.60;;;;;;;4.10;97.67;99223.44;10216904;28;20045;-74
2023/03/07 15:40:25;;;;;;;8.27;5.60;;;;;;;3.91;100.00;99251.50;10232029;28;20503;-74
2023/03/07 15:45:30;;;;;;;6.82;5.40;;;;;;;3.45;100.00;99274.25;10225881;28;20049;-73
2023/03/07 15:50:28;;;;;;;6.15;5.47;;;;;;;3.45;100.00;99274.25;10225691;28;20041;-73
2023/03/07 15:55:25;;;;;;;5.55;5.15;;;;;;;2.46;100.00;99283.84;10222177;28;20047;-73
2023/03/07 16:00:38;;;;;;;9.38;5.18;;;;;;;2.43;100.00;99270.97;10229135;28;20064;-74
2023/03/07 16:05:35;;;;;;;;;;;;;;;2.41;100.00;99283.97;10216472;28;20072;-74
2023/03/07 16:10:32;;;;;;;6.78;4.85;;;;;;;2.85;100.00;99280.66;10221058;28;19952;-74
2023/03/07 16:15:28;;;;;;;7.35;5.72;;;;;;;3.06;100.00;99274.84;10221206;28;20052;-73
2023/03/07 16:20:26;;;;;;;9.73;4.97;;;;;;;2.84;100.00;99283.69;10222008;28;20042;-75
2023/03/07 16:25:26;;;;;;;9.75;5.88;;;;;;;2.81;100.00;99284.25;10228064;28;20049;-76
2023/03/07 16:30:28;;;;;;;9.70;5.43;;;;;;;2.64;100.00;99288.38;10225882;28;20499;-75
2023/03/07 16:35:27;;;;;;;8.15;5.10;;;;;;;2.68;100.00;99281.28;10228951;28;20103;-76
2023/03/07 16:40:25;;;;;;;9.73;4.90;;;;;;;2.65;100.00;99292.69;10228285;28;20154;-75
2023/03/07 16:45:25;;;;;;;12.18;5.50;;;;;;;2.66;100.00;99293.47;10221867;28;20053;-75
2023/03/07 16:50:24;;;;;;;14.68;5.78;;;;;;;2.51;100.00;99297.28;10227599;28;20054;-76
2023/03/07 16:55:22;;;;;;;10.52;5.00;;;;;;;2.42;100.00;99309.84;10226179;28;20053;-75
2023/03/07 17:00:23;;;;;;;9.25;6.45;;;;;;;2.28;100.00;99317.94;10228181;28;20112;-75
2023/03/07 17:05:24;;;;;;;8.90;5.23;;;;;;;2.24;100.00;99325.78;10231698;28;20544;-75
2023/03/07 17:10:22;;;;;;;8.43;5.80;;;;;;;2.06;100.00;99324.75;10233262;28;20064;-75
2023/03/07 17:15:23;;;;;;;9.48;5.78;;;;;;;2.17;100.00;99363.13;10229933;28;20063;-75
2023/03/07 17:20:20;;;;;;;10.88;5.03;;;;;;;1.03;100.00;99389.25;10224377;28;20734;-74
2023/03/07 17:25:16;;;;;;;6.60;5.28;;;;;;;0.82;100.00;99391.34;10232518;28;20525;-74
2023/03/07 17:30:22;;;;;;;9.25;5.63;;;;;;;0.73;100.00;99401.13;10220060;28;20088;-74
2023/03/07 17:35:18;;;;;;;10.30;6.40;;;;;;;0.65;100.00;99399.88;10236999;28;20048;-74
2023/03/07 17:40:15;;;;;;;11.60;6.78;;;;;;;0.69;100.00;99402.78;10238901;28;20077;-75
2023/03/07 17:45:12;;;;;;;10.25;6.18;;;;;;;0.69;100.00;99400.09;10227477;28;20076;-75
2023/03/07 17:50:10;;;;;;;9.93;6.38;;;;;;;0.69;100.00;99402.78;10240398;28;20057;-74
2023/03/07 17:55:08;;;;;;;6.63;5.80;;;;;;;0.66;100.00;99408.75;10230594;28;20080;-74
2023/03/07 18:00:11;;;;;;;9.38;6.35;;;;;;;0.74;100.00;99413.50;10222628;28;20504;-74
2023/03/07 18:05:07;;;;;;;8.32;6.18;;;;;;;0.77;100.00;99423.72;10228425;28;20069;-74
2023/03/07 18:10:06;;;;;;;11.63;6.10;;;;;;;0.77;100.00;99426.41;10227719;28;20148;-75
2023/03/07 18:15:07;;;;;;;6.53;5.90;;;;;;;0.73;100.00;99422.66;10235635;28;20042;-74
2023/03/07 18:20:10;;;;;;;6.70;5.95;;;;;;;0.79;100.00;99426.88;10228551;28;20156;-75
2023/03/07 18:25:08;;;;;;;;;;;;;;;0.80;100.00;99433.88;10226607;28;20451;-74
2023/03/07 18:30:05;;;;;;;8.02;5.70;;;;;;;0.84;100.00;99434.94;10233885;28;19927;-74
2023/03/07 18:35:02;;;;;;;11.48;5.82;;;;;;;1.16;100.00;99436.19;10227322;28;20041;-70
2023/03/07 18:39:58;;;;;;;7.40;5.15;;;;;;;0.97;100.00;99431.53;10232341;28;20053;-74
2023/03/07 18:44:55;;;;;;;8.20;5.15;;;;;;;0.71;100.00;99446.34;10225048;28;20144;-74
2023/03/07 18:49:51;;;;;;;7.38;5.10;;;;;;;0.58;100.00;99459.38;10229800;28;20096;-75
2023/03/07 18:54:48;;;;;;;13.25;5.50;;;;;;;0.50;100.00;99457.28;10211597;28;20141;-74
2023/03/07 18:59:44;;;;;;;6.15;5.43;;;;;;;0.51;100.00;99458.91;10216568;28;20707;-74
2023/03/07 19:04:41;;;;;;;8.07;5.72;;;;;;;0.51;100.00;99461.59;10230722;28;20041;-75
2023/03/07 19:09:38;;;;;;;6.53;5.60;;;;;;;0.55;100.00;99459.94;10221559;28;20087;-75
2023/03/07 19:14:34;;;;;;;8.65;5.70;;;;;;;0.43;100.00;99462.19;10218851;28;20069;-74
2023/03/07 19:19:31;;;;;;;15.80;6.07;;;;;;;0.51;100.00;99464.28;10206866;28;20049;-74
2023/03/07 19:24:27;;;;;;;7.13;5.20;;;;;;;0.52;100.00;99475.84;10214357;28;20059;-75
2023/03/07 19:29:23;;;;;;;9.88;5.35;;;;;;;0.48;100.00;99478.28;10226676;28;20052;-74
2023/03/07 19:34:20;;;;;;;12.20;5.75;;;;;;;0.46;100.00;99485.03;10226824;28;20073;-74
2023/03/07 19:39:19;;;;;;;6.97;5.63;;;;;;;0.48;100.00;99494.41;10214227;28;20099;-74
2023/03/07 19:44:16;;;;;;;8.75;5.90;;;;;;;0.39;100.00;99496.09;10218325;28;20039;-74
2023/03/07 19:49:16;;;;;;;10.02;5.95;;;;;;;0.33;100.00;99500.72;10216795;28;20457;-74
2023/03/07 19:54:13;;;;;;;10.43;6.55;;;;;;;0.41;100.00;99507.38;10222144;28;20048;-75
2023/03/07 19:59:10;;;;;;;9.75;5.60;;;;;;;0.37;100.00;99512.53;10215001;28;20110;-75
2023/03/07 20:04:11;;;;;;;9.48;5.70;;;;;;;0.37;100.00;99511.69;10218931;28;20495;-74
2023/03/07 20:09:11;;;;;;;9.18;5.75;;;;;;;0.37;100.00;99506.31;10227559;28;20106;-74
2023/03/07 20:14:09;;;;;;;7.43;5.70;;;;;;;0.29;100.00;99509.63;10215530;28;20045;-74
2023/03/07 20:19:07;;;;;;;8.95;5.47;;;;;;;0.22;100.00;99509.13;10227240;28;20045;-74
2023/03/07 20:24:05;;;;;;;7.70;5.38;;;;;;;0.19;100.00;99515.88;10214613;28;20037;-76
2023/03/07 20:29:04;;;;;;;5.75;5.20;;;;;;;0.18;100.00;99525.81;10207014;28;20500;-75
2023/03/07 20:34:01;;;;;;;8.13;5.50;;;;;;;0.15;100.00;99534.44;10210382;28;20508;-76
2023/03/07 20:39:06;;;;;;;10.00;6.80;;;;;;;0.13;100.00;99533.91;10212190;28;20068;-75
2023/03/07 20:44:05;;;;;;;17.98;8.52;;;;;;;0.10;100.00;99529.09;10217778;28;20042;-75
2023/03/07 20:49:02;;;;;;;13.32;6.63;;;;;;;0.04;100.00;99534.75;10221970;28;20041;-75
2023/03/07 20:54:00;;;;;;;9.60;5.25;;;;;;;0.00;100.00;99545.28;10223891;28;20052;-74
2023/03/07 20:58:58;;;;;;;10.57;5.43;;;;;;;-0.04;100.00;99549.59;10212023;28;20052;-74
2023/03/07 21:03:59;;;;;;;8.32;5.43;;;;;;;-0.09;100.00;99552.31;10220634;28;20052;-74
2023/03/07 21:08:58;;;;;;;9.48;5.05;;;;;;;-0.08;100.00;99559.28;10219079;28;20053;-74
2023/03/07 21:13:54;;;;;;;8.75;5.55;;;;;;;-0.03;100.00;99567.31;10223236;28;20124;-74
2023/03/07 21:18:51;;;;;;;6.10;5.15;;;;;;;-0.11;100.00;99573.28;10219037;28;20499;-75
2023/03/07 21:23:47;;;;;;;7.38;5.32;;;;;;;-0.12;100.00;99574.34;10226908;28;20037;-74
2023/03/07 21:28:44;;;;;;;7.18;5.38;;;;;;;-0.10;100.00;99577.56;10218872;28;20693;-74
2023/03/07 21:33:43;;;;;;;8.02;5.05;;;;;;;-0.18;100.00;99580.81;10223355;28;20129;-74
2023/03/07 21:38:40;;;;;;;7.05;5.20;;;;;;;-0.22;100.00;99581.34;10225218;28;20042;-74
2023/03/07 21:43:37;;;;;;;7.90;5.55;;;;;;;-0.27;100.00;99583.25;10220404;28;20491;-74
2023/03/07 21:48:33;;;;;;;10.25;5.28;;;;;;;-0.31;100.00;99593.72;10227937;28;20069;-74
2023/03/07 21:53:30;;;;;;;9.48;5.15;;;;;;;-0.32;100.00;99600.19;10228677;28;20125;-75
2023/03/07 21:58:30;;;;;;;7.88;5.13;;;;;;;-0.30;100.00;99602.59;10232997;28;20128;-75
2023/03/07 22:03:27;;;;;;;9.68;5.53;;;;;;;-0.37;100.00;99610.97;10230797;28;20037;-75
2023/03/07 22:08:24;;;;;;;10.15;5.72;;;;;;;-0.39;100.00;99609.63;10224295;28;20694;-74
2023/03/07 22:13:20;;;;;;;6.90;5.15;;;;;;;-0.39;100.00;99612.31;10228435;28;20060;-74
2023/03/07 22:18:17;;;;;;;12.90;5.47;;;;;;;-0.42;100.00;99619.00;10225567;28;20045;-75
2023/03/07 22:23:13;;;;;;;7.20;5.38;;;;;;;-0.48;100.00;99614.75;10230768;28;20420;-74
2023/03/07 22:28:10;;;;;;;5.35;4.85;;;;;;;-0.54;100.00;99621.19;10238974;28;20043;-74
2023/03/07 22:33:06;;;;;;;5.32;4.70;;;;;;;-0.56;100.00;99623.31;10227755;28;20041;-74
2023/03/07 22:38:03;;;;;;;6.68;5.00;;;;;;;-0.59;100.00;99622.00;10227422;28;20049;-74
2023/03/07 22:43:00;;;;;;;11.32;5.30;;;;;;;-0.56;100.00;99628.69;10228593;28;20097;-75
2023/03/07 22:47:56;;;;;;;6.38;4.75;;;;;;;-0.58;100.00;99628.16;10228672;28;20049;-74
2023/03/07 22:52:55;;;;;;;7.78;4.97;;;;;;;-0.62;100.00;99633.28;10226605;28;20037;-75
2023/03/07 22:57:51;;;;;;;7.10;5.00;;;;;;;-0.65;100.00;99637.31;10228997;28;20041;-74
2023/03/07 23:02:48;;;;;;;11.25;5.35;;;;;;;-0.67;100.00;99644.84;10220396;28;20060;-74